Time;durP1;ratioP1;P1;durP2;ratioP2;P2;SDS_P1;SDS_P2;PMS_P1;PMS_P2;Temp;Humidity;BMP_temperature;BMP_pressure;BME280_temperature;BME280_humidity;BME280_pressure;Samples;Min_cycle;Max_cycle;Signal;HPM_P1;HPM_P2
2023/05/22 00:00:55;;;;;;;;;;;;;;;22.38;38.24;101781.50;5123894;27;9470;-62
2023/05/22 00:03:23;;;;;;;;;;;;;;;22.33;38.26;101780.72;5124836;27;8134;-62
2023/05/22 00:05:52;;;;;;;;;;;;;;;22.35;38.57;101787.72;5143827;27;9460;-62
2023/05/22 00:08:18;;;;;;;;;;;;;;;22.33;37.97;101784.38;5143415;27;10289;-62
2023/05/22 00:10:45;;;;;;;;;;;;;;;22.30;38.04;101786.97;5144336;27;9784;-62
2023/05/22 00:13:11;;;;;;;;;;;;;;;22.34;38.25;101774.81;5143116;27;7231;-62
2023/05/22 00:15:38;;;;;;;;;;;;;;;22.33;37.98;101784.38;5142285;27;9482;-62
2023/05/22 00:18:05;;;;;;;;;;;;;;;22.27;37.98;101779.94;5122811;27;9544;-62
2023/05/22 00:20:37;;;;;;;;;;;;;;;22.28;38.24;101781.63;5123974;27;5391;-62
2023/05/22 00:23:08;;;;;;;;;;;;;;;22.25;37.78;101775.78;5144022;27;7532;-62
2023/05/22 00:25:36;;;;;;;;;;;;;;;22.25;38.05;101781.41;5140518;27;11711;-63
2023/05/22 00:30:36;;;;;;;;;;;;;;;22.20;38.18;101778.63;5138211;27;14033;-62
2023/05/22 00:35:33;;;;;;;;;;;;;;;22.12;38.22;101761.25;5139239;27;9925;-62
2023/05/22 00:38:01;;;;;;;;;;;;;;;22.12;38.23;101761.25;5144488;27;11136;-62
2023/05/22 00:40:28;;;;;;;;;;;;;;;22.12;38.13;101761.25;5143337;27;5303;-62
2023/05/22 00:42:55;;;;;;;;;;;;;;;22.11;38.16;101758.75;5143965;27;8042;-62
2023/05/22 00:45:23;;;;;;;;;;;;;;;22.07;38.19;101766.97;5141512;27;8019;-62
2023/05/22 00:47:50;;;;;;;;;;;;;;;22.07;38.09;101758.53;5142900;27;7978;-62
2023/05/22 00:50:17;;;;;;;;;;;;;;;22.05;38.22;101751.50;5136048;27;10199;-62
2023/05/22 00:52:44;;;;;;;;;;;;;;;22.06;38.34;101756.00;5121234;27;10307;-62
2023/05/22 00:55:12;;;;;;;;;;;;;;;22.03;38.36;101750.97;5121670;27;10201;-62
2023/05/22 00:57:40;;;;;;;;;;;;;;;22.02;38.33;101743.66;5121316;27;10356;-64
2023/05/22 01:00:09;;;;;;;;;;;;;;;22.01;38.31;101744.81;5120883;27;10769;-62
2023/05/22 01:02:36;;;;;;;;;;;;;;;21.98;38.21;101746.25;5121062;27;5577;-62
2023/05/22 01:05:05;;;;;;;;;;;;;;;21.94;38.17;101745.16;5110123;27;9770;-62
2023/05/22 01:07:36;;;;;;;;;;;;;;;21.93;38.22;101742.66;5122343;27;9810;-62
2023/05/22 01:10:06;;;;;;;;;;;;;;;21.90;38.31;101737.56;5122466;27;8318;-62
2023/05/22 01:12:51;;;;;;;;;;;;;;;21.90;38.22;101734.75;5119935;27;7236;-62
2023/05/22 01:15:30;;;;;;;;;;;;;;;21.88;38.34;101743.50;5134220;27;9720;-62
2023/05/22 01:18:03;;;;;;;;;;;;;;;21.84;38.21;101741.59;5120513;27;10068;-62
2023/05/22 01:20:32;;;;;;;;;;;;;;;21.84;38.18;101735.97;5121796;27;9177;-62
2023/05/22 01:23:08;;;;;;;;;;;;;;;21.80;38.23;101741.34;5121957;27;5426;-62
2023/05/22 01:25:44;;;;;;;;;;;;;;;21.80;38.10;101735.72;5122450;27;6721;-62
2023/05/22 01:28:13;;;;;;;;;;;;;;;21.77;38.42;101741.09;5121463;27;7975;-62
2023/05/22 01:30:46;;;;;;;;;;;;;;;21.76;38.27;101731.81;5136116;27;8142;-62
2023/05/22 01:33:14;;;;;;;;;;;;;;;21.74;38.48;101739.72;5119710;27;10791;-62
2023/05/22 01:38:10;;;;;;;;;;;;;;;21.71;38.38;101741.13;5122414;27;10218;-62
2023/05/22 01:40:37;;;;;;;;;;;;;;;21.69;38.07;101740.63;5121700;27;7158;-62
2023/05/22 01:43:04;;;;;;;;;;;;;;;21.70;38.39;101745.13;5122032;27;8141;-63
2023/05/22 01:45:30;;;;;;;;;;;;;;;21.65;38.38;101739.53;5120383;27;12095;-62
2023/05/22 01:47:57;;;;;;;;;;;;;;;21.66;38.46;101741.22;5124834;27;8161;-62
2023/05/22 01:50:25;;;;;;;;;;;;;;;21.65;38.20;101738.69;5123695;27;8220;-62
2023/05/22 01:53:03;;;;;;;;;;;;;;;21.62;38.31;101734.47;5121877;27;9410;-62
2023/05/22 01:55:39;;;;;;;;;;;;;;;21.60;38.39;101731.16;5120546;27;9751;-63
2023/05/22 01:58:14;;;;;;;;;;;;;;;21.59;38.53;101725.81;5120133;27;8202;-62
2023/05/22 02:00:42;;;;;;;;;;;;;;;21.58;38.68;101726.94;5109428;27;8160;-62
2023/05/22 02:03:12;;;;;;;;;;;;;;;21.56;38.79;101721.63;5121451;27;8159;-62
2023/05/22 02:05:40;;;;;;;;;;;;;;;21.56;38.68;101716.00;5120875;27;10305;-62
2023/05/22 02:08:07;;;;;;;;;;;;;;;21.53;38.63;101729.84;5119662;27;7966;-62
2023/05/22 02:10:34;;;;;;;;;;;;;;;21.51;38.87;101721.69;5119306;27;11125;-62
2023/05/22 02:13:01;;;;;;;;;;;;;;;21.53;39.07;101718.59;5120765;27;9806;-63
2023/05/22 02:15:26;;;;;;;;;;;;;;;21.52;38.85;101728.16;5120675;27;9563;-62
2023/05/22 02:17:53;;;;;;;;;;;;;;;21.50;38.85;101717.19;5119540;27;17746;-63
2023/05/22 02:20:20;;;;;;;;;;;;;;;21.45;38.94;101717.22;5121384;27;8279;-62
2023/05/22 02:22:47;;;;;;;;;;;;;;;21.49;39.06;101711.84;5120465;27;7873;-62
2023/05/22 02:25:15;;;;;;;;;;;;;;;21.46;39.00;101718.06;5118767;27;14100;-62
2023/05/22 02:27:43;;;;;;;;;;;;;;;21.46;39.04;101710.47;5135636;27;10254;-62
2023/05/22 02:30:10;;;;;;;;;;;;;;;21.45;39.27;101714.41;5122152;27;8095;-62
2023/05/22 02:32:37;;;;;;;;;;;;;;;21.43;38.96;101713.06;5120492;27;7790;-62
2023/05/22 02:35:04;;;;;;;;;;;;;;;21.45;39.17;101711.59;5122816;27;9447;-63
2023/05/22 02:37:31;;;;;;;;;;;;;;;21.43;39.22;101713.91;5120769;27;9913;-62
2023/05/22 02:39:58;;;;;;;;;;;;;;;21.42;38.94;101708.56;5123242;27;8157;-62
2023/05/22 02:42:24;;;;;;;;;;;;;;;21.40;39.23;101714.47;5123211;27;8170;-64
2023/05/22 02:44:51;;;;;;;;;;;;;;;21.39;39.08;101711.97;5125038;27;8507;-63
2023/05/22 02:49:46;;;;;;;;;;;;;;;21.37;39.37;101714.22;5133076;27;7956;-63
2023/05/22 02:52:13;;;;;;;;;;;;;;;21.34;39.45;101718.47;5144057;27;8164;-63
2023/05/22 02:54:39;;;;;;;;;;;;;;;21.34;39.32;101718.47;5144513;27;10355;-63
2023/05/22 02:57:06;;;;;;;;;;;;;;;21.30;39.46;101721.00;5144713;27;8234;-63
2023/05/22 02:59:35;;;;;;;;;;;;;;;21.30;39.25;101711.78;5145289;27;10266;-63
2023/05/22 03:02:02;;;;;;;;;;;;;;;21.28;39.62;101722.47;5143113;27;10270;-63
2023/05/22 03:04:29;;;;;;;;;;;;;;;21.29;39.30;101719.38;5142118;27;9480;-62
2023/05/22 03:06:55;;;;;;;;;;;;;;;21.26;39.49;101710.66;5144549;27;7520;-63
2023/05/22 03:09:22;;;;;;;;;;;;;;;21.22;39.44;101712.38;5125748;27;10191;-61
2023/05/22 03:11:48;;;;;;;;;;;;;;;21.22;40.19;101706.75;5144125;27;9201;-63
2023/05/22 03:14:15;;;;;;;;;;;;;;;21.21;39.79;101716.34;5125270;27;11608;-63
2023/05/22 03:16:42;;;;;;;;;;;;;;;21.19;39.78;101713.81;5123236;27;16492;-63
2023/05/22 03:19:13;;;;;;;;;;;;;;;21.22;39.46;101715.19;5142157;27;7680;-61
2023/05/22 03:21:40;;;;;;;;;;;;;;;21.19;39.85;101701.75;5143899;27;10270;-63
2023/05/22 03:24:06;;;;;;;;;;;;;;;21.18;39.57;101709.34;5113455;27;10849;-61
2023/05/22 03:26:33;;;;;;;;;;;;;;;21.13;39.84;101700.09;5125283;27;10723;-63
2023/05/22 03:28:59;;;;;;;;;;;;;;;21.17;39.64;101710.44;5141469;27;11287;-63
2023/05/22 03:31:26;;;;;;;;;;;;;;;21.15;39.89;101706.28;5143459;27;11510;-64
2023/05/22 03:33:53;;;;;;;;;;;;;;;21.12;40.09;101702.03;5122336;27;9184;-63
2023/05/22 03:36:20;;;;;;;;;;;;;;;21.13;39.73;101708.53;5143014;27;16784;-64
2023/05/22 03:38:46;;;;;;;;;;;;;;;21.10;39.82;101700.66;5140006;27;16462;-63
2023/05/22 03:41:13;;;;;;;;;;;;;;;21.10;39.84;101703.47;5144209;27;10269;-63
2023/05/22 03:43:40;;;;;;;;;;;;;;;21.09;39.98;101699.81;5144817;27;5615;-63
2023/05/22 03:46:10;;;;;;;;;;;;;;;21.09;40.06;101696.16;5139083;27;10836;-63
2023/05/22 03:48:37;;;;;;;;;;;;;;;21.05;40.27;101706.31;5143871;27;7972;-63
2023/05/22 03:51:04;;;;;;;;;;;;;;;21.03;40.16;101688.94;5142361;27;12748;-63
2023/05/22 03:53:29;;;;;;;;;;;;;;;21.04;40.13;101696.22;5143904;27;11487;-63
2023/05/22 03:55:59;;;;;;;;;;;;;;;21.01;40.43;101694.00;5143425;27;13723;-63
2023/05/22 03:58:25;;;;;;;;;;;;;;;20.97;40.73;101698.53;5142073;27;12443;-63
2023/05/22 04:00:52;;;;;;;;;;;;;;;21.02;40.39;101696.53;5142198;27;12505;-63
2023/05/22 04:05:46;;;;;;;;;;;;;;;21.00;40.70;101690.34;5142139;27;13758;-63
2023/05/22 04:08:12;;;;;;;;;;;;;;;20.99;40.65;101688.66;5143803;27;7995;-63
2023/05/22 04:10:39;;;;;;;;;;;;;;;20.99;40.45;101694.28;5143228;27;5420;-63
2023/05/22 04:13:06;;;;;;;;;;;;;;;20.97;40.70;101699.38;5144204;27;8208;-63
2023/05/22 04:15:32;;;;;;;;;;;;;;;20.97;40.62;101693.75;5142389;27;12515;-63
2023/05/22 04:17:59;;;;;;;;;;;;;;;20.97;40.82;101701.34;5140684;27;13654;-63
2023/05/22 04:20:26;;;;;;;;;;;;;;;20.95;40.75;101693.19;5139705;27;10910;-63
2023/05/22 04:22:53;;;;;;;;;;;;;;;20.94;40.92;101702.75;5143218;27;9644;-62
2023/05/22 04:25:20;;;;;;;;;;;;;;;20.94;41.15;101701.94;5142740;27;14380;-63
2023/05/22 04:27:47;;;;;;;;;;;;;;;20.91;40.81;101697.72;5116231;27;9826;-63
2023/05/22 04:30:15;;;;;;;;;;;;;;;20.93;41.10;101701.09;5142735;27;9942;-63
2023/05/22 04:32:42;;;;;;;;;;;;;;;20.89;40.85;101705.63;5143223;27;9816;-63
2023/05/22 04:35:11;;;;;;;;;;;;;;;20.90;41.17;101698.84;5129615;27;14369;-63
2023/05/22 04:37:39;;;;;;;;;;;;;;;20.89;41.04;101696.34;5143341;27;14009;-63
2023/05/22 04:40:07;;;;;;;;;;;;;;;20.88;41.01;101697.47;5142850;27;7637;-63
2023/05/22 04:42:34;;;;;;;;;;;;;;;20.86;41.10;101697.75;5143447;27;6016;-63
2023/05/22 04:45:00;;;;;;;;;;;;;;;20.84;41.36;101697.22;5142699;27;8023;-63
2023/05/22 04:47:33;;;;;;;;;;;;;;;20.84;41.25;101700.88;5141071;27;9041;-63
2023/05/22 04:49:59;;;;;;;;;;;;;;;20.83;41.27;101695.53;5141585;27;8113;-63
2023/05/22 04:52:26;;;;;;;;;;;;;;;20.81;41.34;101701.44;5125593;27;5429;-63
2023/05/22 04:54:53;;;;;;;;;;;;;;;20.80;41.43;101699.75;5143967;27;5444;-63
2023/05/22 04:57:24;;;;;;;;;;;;;;;20.79;41.61;101698.09;5142208;27;9354;-63
2023/05/22 04:59:51;;;;;;;;;;;;;;;20.80;41.33;101704.56;5139390;27;7859;-63
2023/05/22 05:02:18;;;;;;;;;;;;;;;20.78;41.58;101706.81;5141791;27;7538;-63
2023/05/22 05:04:45;;;;;;;;;;;;;;;20.78;41.36;101712.44;5139953;27;9478;-63
2023/05/22 05:07:16;;;;;;;;;;;;;;;20.77;41.21;101717.19;5122619;27;8449;-63
2023/05/22 05:09:43;;;;;;;;;;;;;;;20.75;41.30;101704.59;5142164;27;10206;-63
2023/05/22 05:12:09;;;;;;;;;;;;;;;20.76;41.53;101709.06;5143164;27;11134;-63
2023/05/22 05:14:36;;;;;;;;;;;;;;;20.74;41.30;101716.94;5142320;27;11092;-63
2023/05/22 05:17:04;;;;;;;;;;;;;;;20.74;41.29;101717.78;5138632;27;10964;-63
2023/05/22 05:19:33;;;;;;;;;;;;;;;20.75;41.38;101718.63;5121611;27;6122;-63
2023/05/22 05:22:02;;;;;;;;;;;;;;;20.72;41.23;101720.03;5142365;27;8260;-62
2023/05/22 05:24:29;;;;;;;;;;;;;;;20.72;41.59;101719.19;5123549;27;8164;-63
2023/05/22 05:26:55;;;;;;;;;;;;;;;20.72;41.24;101722.00;5115039;27;7537;-63
2023/05/22 05:29:22;;;;;;;;;;;;;;;20.73;41.22;101723.69;5142382;27;7520;-63
2023/05/22 05:31:48;;;;;;;;;;;;;;;20.76;41.45;101720.28;5142215;27;6105;-63
2023/05/22 05:34:15;;;;;;;;;;;;;;;20.77;41.29;101725.63;5142147;27;9272;-63
2023/05/22 05:36:42;;;;;;;;;;;;;;;20.78;41.38;101720.84;5142164;27;10634;-63
2023/05/22 05:39:09;;;;;;;;;;;;;;;20.80;41.28;101724.22;5140864;27;10305;-62
2023/05/22 05:41:35;;;;;;;;;;;;;;;20.82;41.58;101727.56;5120339;27;7912;-63
2023/05/22 05:44:02;;;;;;;;;;;;;;;20.82;41.32;101724.75;5142818;27;9479;-63
2023/05/22 05:46:28;;;;;;;;;;;;;;;20.84;41.38;101726.16;5141007;27;9478;-63
2023/05/22 05:48:56;;;;;;;;;;;;;;;20.86;41.53;101721.06;5142011;27;10572;-63
2023/05/22 05:51:23;;;;;;;;;;;;;;;20.89;41.38;101722.47;5140716;27;11226;-63
2023/05/22 05:53:49;;;;;;;;;;;;;;;20.92;41.40;101721.03;5141887;27;8168;-63
2023/05/22 05:56:16;;;;;;;;;;;;;;;20.95;41.47;101724.09;5141739;27;6022;-63
2023/05/22 05:58:43;;;;;;;;;;;;;;;20.97;41.58;101724.66;5122965;27;11315;-63
2023/05/22 06:01:10;;;;;;;;;;;;;;;21.00;41.43;101723.22;5120875;27;7764;-63
2023/05/22 06:03:37;;;;;;;;;;;;;;;21.03;41.48;101722.66;5142244;27;8177;-63
2023/05/22 06:06:03;;;;;;;;;;;;;;;21.05;41.54;101723.19;5141304;27;7936;-63
2023/05/22 06:08:31;;;;;;;;;;;;;;;21.08;41.67;101729.03;5142062;27;5043;-63
2023/05/22 06:10:57;;;;;;;;;;;;;;;21.10;41.79;101729.59;5141167;27;11331;-63
2023/05/22 06:13:24;;;;;;;;;;;;;;;21.13;41.78;101731.84;5119442;27;8438;-63
2023/05/22 06:15:50;;;;;;;;;;;;;;;21.16;42.00;101724.81;5136563;27;5887;-63
2023/05/22 06:18:17;;;;;;;;;;;;;;;21.18;41.93;101728.16;5141186;27;15940;-63
2023/05/22 06:20:44;;;;;;;;;;;;;;;21.20;41.76;101732.38;5120172;27;14636;-63
2023/05/22 06:23:10;;;;;;;;;;;;;;;21.22;42.26;101729.25;5142332;27;7602;-62
2023/05/22 06:25:38;;;;;;;;;;;;;;;21.28;42.41;101737.34;5140396;27;9291;-63
2023/05/22 06:28:05;;;;;;;;;;;;;;;21.32;42.52;101746.03;5143163;27;11617;-63
2023/05/22 06:30:32;;;;;;;;;;;;;;;21.32;42.50;101746.03;5141045;27;10760;-63
2023/05/22 06:33:09;;;;;;;;;;;;;;;21.35;42.54;101739.81;5142060;27;5760;-63
2023/05/22 06:35:36;;;;;;;;;;;;;;;21.38;42.49;101746.84;5122075;27;11003;-62
2023/05/22 06:38:03;;;;;;;;;;;;;;;21.42;42.73;101748.75;5141716;27;8169;-63
2023/05/22 06:40:30;;;;;;;;;;;;;;;21.44;42.61;101752.09;5141411;27;7983;-63
2023/05/22 06:42:58;;;;;;;;;;;;;;;21.47;42.71;101759.13;5141946;27;7980;-62
2023/05/22 06:45:25;;;;;;;;;;;;;;;21.49;42.80;101754.88;5140982;27;10281;-62
2023/05/22 06:47:52;;;;;;;;;;;;;;;21.52;42.62;101756.25;5140474;27;9460;-63
2023/05/22 06:50:20;;;;;;;;;;;;;;;21.54;42.96;101756.78;5139496;27;8527;-63
2023/05/22 06:52:47;;;;;;;;;;;;;;;21.56;43.04;101768.59;5144173;27;8183;-63
2023/05/22 06:55:14;;;;;;;;;;;;;;;21.58;42.91;101764.34;5141179;27;9822;-63
2023/05/22 06:57:41;;;;;;;;;;;;;;;21.61;43.04;101772.22;5140205;27;12437;-63
2023/05/22 07:00:11;;;;;;;;;;;;;;;21.64;43.13;101776.38;5140991;27;12337;-62
2023/05/22 07:02:38;;;;;;;;;;;;;;;21.65;43.30;101772.44;5137665;27;10192;-63
2023/05/22 07:05:05;;;;;;;;;;;;;;;21.67;43.24;101778.59;5141373;27;10203;-64
2023/05/22 07:07:32;;;;;;;;;;;;;;;21.68;43.37;101781.13;5121786;27;16268;-63
2023/05/22 07:09:59;;;;;;;;;;;;;;;21.70;43.47;101783.66;5142011;27;8165;-63
2023/05/22 07:12:26;;;;;;;;;;;;;;;21.73;43.45;101791.47;5141350;27;8226;-64
2023/05/22 07:14:53;;;;;;;;;;;;;;;21.74;43.81;101796.81;5141586;27;7733;-62
2023/05/22 07:17:20;;;;;;;;;;;;;;;21.76;44.13;101790.06;5121589;27;13515;-63
2023/05/22 07:19:47;;;;;;;;;;;;;;;21.77;44.08;101791.72;5140472;27;15286;-62
2023/05/22 07:22:14;;;;;;;;;;;;;;;21.78;44.00;101793.41;5140625;27;5370;-67
2023/05/22 07:24:42;;;;;;;;;;;;;;;21.81;43.92;101801.25;5105559;27;7992;-61
2023/05/22 07:27:10;;;;;;;;;;;;;;;21.81;43.84;101802.09;5124179;27;13746;-64
2023/05/22 07:29:37;;;;;;;;;;;;;;;21.82;43.75;101798.16;5101472;27;7526;-62
2023/05/22 07:32:04;;;;;;;;;;;;;;;21.83;43.98;101810.25;5144517;27;5415;-62
2023/05/22 07:34:33;;;;;;;;;;;;;;;21.84;44.62;101803.50;5125683;27;14667;-62
2023/05/22 07:37:06;;;;;;;;;;;;;;;21.85;44.35;101810.81;5139716;27;9407;-62
2023/05/22 07:39:32;;;;;;;;;;;;;;;21.86;44.24;101809.63;5144807;27;10152;-61
2023/05/22 07:41:59;;;;;;;;;;;;;;;21.87;44.21;101814.13;5125744;27;9284;-63
2023/05/22 07:44:27;;;;;;;;;;;;;;;21.88;44.10;101813.00;5145515;27;7288;-62
2023/05/22 07:46:54;;;;;;;;;;;;;;;21.89;44.17;101811.88;5144398;27;7718;-62
2023/05/22 07:49:22;;;;;;;;;;;;;;;21.89;44.10;101809.06;5144771;27;8296;-63
2023/05/22 07:51:49;;;;;;;;;;;;;;;21.89;44.25;101809.91;5124999;27;7967;-65
2023/05/22 07:54:17;;;;;;;;;;;;;;;21.91;44.25;101815.22;5125322;27;8240;-63
2023/05/22 07:56:44;;;;;;;;;;;;;;;21.91;44.32;101812.41;5124827;27;7982;-63
2023/05/22 07:59:11;;;;;;;;;;;;;;;21.92;44.21;101814.94;5126349;27;8058;-63
2023/05/22 08:01:40;;;;;;;;;;;;;;;21.93;44.30;101818.63;5143823;27;7523;-63
2023/05/22 08:04:07;;;;;;;;;;;;;;;21.92;44.23;101820.56;5145047;27;10621;-66
2023/05/22 08:06:34;;;;;;;;;;;;;;;21.93;44.21;101825.09;5143271;27;7529;-64
2023/05/22 08:09:03;;;;;;;;;;;;;;;21.95;44.64;101827.59;5125377;27;7983;-64
2023/05/22 08:11:30;;;;;;;;;;;;;;;21.94;44.26;101823.94;5141424;27;7603;-64
2023/05/22 08:13:57;;;;;;;;;;;;;;;21.95;44.46;101827.59;5125198;27;9708;-61
2023/05/22 08:16:24;;;;;;;;;;;;;;;21.96;44.41;101830.13;5139622;27;12181;-63
2023/05/22 08:18:51;;;;;;;;;;;;;;;21.96;44.35;101829.28;5125871;27;11170;-64
2023/05/22 08:21:18;;;;;;;;;;;;;;;21.98;44.44;101838.28;5143191;27;6084;-64
2023/05/22 08:23:45;;;;;;;;;;;;;;;21.97;44.19;101826.19;5126605;27;8207;-63
2023/05/22 08:26:13;;;;;;;;;;;;;;;21.97;44.53;101839.41;5143575;27;10799;-64
2023/05/22 08:28:43;;;;;;;;;;;;;;;21.97;44.33;101836.59;5144711;27;11181;-63
2023/05/22 08:31:10;;;;;;;;;;;;;;;21.97;44.29;101837.44;5142224;27;8012;-63
2023/05/22 08:33:38;;;;;;;;;;;;;;;21.96;44.32;101832.94;5144879;27;5065;-63
2023/05/22 08:36:05;;;;;;;;;;;;;;;21.98;44.61;101841.94;5143495;27;8250;-63
2023/05/22 08:38:32;;;;;;;;;;;;;;;21.99;44.38;101848.38;5144484;27;9842;-63
2023/05/22 08:40:59;;;;;;;;;;;;;;;21.98;44.24;101846.72;5144124;27;13165;-63
2023/05/22 08:43:27;;;;;;;;;;;;;;;21.97;44.18;101850.66;5109424;27;8387;-63
2023/05/22 08:45:58;;;;;;;;;;;;;;;21.97;44.29;101851.50;5125742;27;6279;-63
2023/05/22 08:48:28;;;;;;;;;;;;;;;21.96;44.31;101847.00;5122646;27;7537;-63
2023/05/22 08:50:57;;;;;;;;;;;;;;;21.96;44.39;101852.63;5121855;27;5853;-63
2023/05/22 08:53:27;;;;;;;;;;;;;;;21.97;44.34;101856.28;5119752;27;10180;-63
2023/05/22 08:55:54;;;;;;;;;;;;;;;21.96;44.39;101852.63;5136397;27;9685;-63
2023/05/22 08:58:21;;;;;;;;;;;;;;;21.96;44.28;101846.16;5121175;27;9491;-64
2023/05/22 09:00:48;;;;;;;;;;;;;;;21.97;44.31;101845.88;5118085;27;8184;-63
2023/05/22 09:03:17;;;;;;;;;;;;;;;21.98;44.13;101846.72;5125036;27;5716;-63
2023/05/22 09:05:44;;;;;;;;;;;;;;;22.01;44.36;101851.75;5122558;27;7996;-65
2023/05/22 09:08:11;;;;;;;;;;;;;;;22.00;44.55;101852.88;5123865;27;8422;-63
2023/05/22 09:10:46;;;;;;;;;;;;;;;22.01;44.30;101851.75;5123292;27;8353;-63
2023/05/22 09:13:23;;;;;;;;;;;;;;;21.99;44.16;101851.19;5122965;27;7566;-63
2023/05/22 09:15:50;;;;;;;;;;;;;;;21.98;44.23;101849.53;5121671;27;7662;-64
2023/05/22 09:18:17;;;;;;;;;;;;;;;21.98;44.22;101843.91;5116088;27;5448;-64
2023/05/22 09:20:43;;;;;;;;;;;;;;;21.98;44.33;101849.53;5117187;27;8272;-63
2023/05/22 09:23:13;;;;;;;;;;;;;;;21.96;44.54;101849.81;5120591;27;9775;-63
2023/05/22 09:25:41;;;;;;;;;;;;;;;21.97;43.98;101850.66;5117534;27;8007;-63
2023/05/22 09:28:10;;;;;;;;;;;;;;;21.99;44.41;101854.00;5110278;27;8240;-63
2023/05/22 09:30:36;;;;;;;;;;;;;;;22.00;44.28;101859.34;5115368;27;8178;-64
2023/05/22 09:33:07;;;;;;;;;;;;;;;22.03;44.35;101855.91;5120620;27;9813;-63
2023/05/22 09:35:35;;;;;;;;;;;;;;;21.98;44.44;101856.00;5119426;27;5696;-63
2023/05/22 09:38:03;;;;;;;;;;;;;;;21.96;44.27;101863.88;5119552;27;8290;-63
2023/05/22 09:40:33;;;;;;;;;;;;;;;21.99;44.25;101856.81;5102159;27;8182;-63
2023/05/22 09:43:01;;;;;;;;;;;;;;;21.96;44.06;101860.22;5120394;27;5612;-64
2023/05/22 09:45:27;;;;;;;;;;;;;;;21.94;44.55;101856.88;5100162;27;8190;-64
2023/05/22 09:47:55;;;;;;;;;;;;;;;21.94;44.63;101854.06;5116620;27;12330;-64
2023/05/22 09:50:21;;;;;;;;;;;;;;;21.94;44.70;101856.88;5130917;27;9801;-63
2023/05/22 09:52:49;;;;;;;;;;;;;;;22.02;44.21;101850.59;5140851;27;9435;-64
2023/05/22 09:55:18;;;;;;;;;;;;;;;22.07;44.42;101848.59;5139838;27;13287;-63
2023/05/22 09:57:47;;;;;;;;;;;;;;;22.07;44.80;101853.38;5139949;27;10446;-64
2023/05/22 10:00:16;;;;;;;;;;;;;;;22.11;44.32;101854.47;5139415;27;9514;-63
2023/05/22 10:02:45;;;;;;;;;;;;;;;22.16;44.13;101851.59;5140999;27;7265;-64
2023/05/22 10:07:47;;;;;;;;;;;;;;;22.20;44.09;101847.03;5137966;27;11884;-64
2023/05/22 10:10:16;;;;;;;;;;;;;;;22.14;44.51;101836.97;5121649;27;11877;-63
2023/05/22 10:12:51;;;;;;;;;;;;;;;22.11;44.46;101846.00;5121749;27;11610;-63
2023/05/22 10:15:18;;;;;;;;;;;;;;;22.15;44.34;101844.28;5103707;27;8549;-63
2023/05/22 10:17:46;;;;;;;;;;;;;;;22.15;44.24;101849.91;5138979;27;10872;-64
2023/05/22 10:20:14;;;;;;;;;;;;;;;22.19;44.08;101856.63;5119847;27;9738;-63
2023/05/22 10:22:41;;;;;;;;;;;;;;;22.23;44.01;101852.06;5120928;27;10562;-64
2023/05/22 10:25:08;;;;;;;;;;;;;;;22.28;43.77;101851.16;5120236;27;9477;-63
2023/05/22 10:27:37;;;;;;;;;;;;;;;22.28;43.75;101849.19;5119784;27;11943;-63
2023/05/22 10:30:07;;;;;;;;;;;;;;;22.29;43.61;101850.88;5138462;27;7982;-71
2023/05/22 10:32:39;;;;;;;;;;;;;;;22.25;43.87;101847.00;5117721;27;8380;-63
2023/05/22 10:35:09;;;;;;;;;;;;;;;22.27;43.33;101849.50;5136324;27;7739;-63
2023/05/22 10:37:41;;;;;;;;;;;;;;;22.28;43.39;101857.66;5140288;27;7513;-63
2023/05/22 10:40:11;;;;;;;;;;;;;;;22.25;43.39;101854.59;5137380;27;9506;-63
2023/05/22 10:42:38;;;;;;;;;;;;;;;22.24;43.19;101848.13;5140103;27;9677;-64
2023/05/22 10:45:06;;;;;;;;;;;;;;;22.30;43.18;101854.53;5103739;27;8216;-63
2023/05/22 10:47:34;;;;;;;;;;;;;;;22.27;43.04;101853.16;5119903;27;7999;-63
2023/05/22 10:50:03;;;;;;;;;;;;;;;22.24;42.99;101865.00;5139563;27;7881;-63
2023/05/22 10:52:29;;;;;;;;;;;;;;;22.28;43.32;101857.66;5139223;27;9814;-63
2023/05/22 10:54:58;;;;;;;;;;;;;;;22.32;43.23;101860.69;5140361;27;11363;-63
2023/05/22 10:57:26;;;;;;;;;;;;;;;22.32;43.10;101861.53;5123762;27;7526;-63
2023/05/22 11:00:04;;;;;;;;;;;;;;;22.31;43.35;101854.22;5139545;27;7855;-62
2023/05/22 11:02:35;;;;;;;;;;;;;;;22.31;43.33;101857.03;5124860;27;12024;-63
2023/05/22 11:05:05;;;;;;;;;;;;;;;22.33;43.25;101851.13;5122869;27;7604;-63
2023/05/22 11:07:35;;;;;;;;;;;;;;;22.30;43.18;101855.38;5146523;27;7533;-63
2023/05/22 11:10:02;;;;;;;;;;;;;;;22.30;43.15;101852.56;5144329;27;8271;-63
2023/05/22 11:12:29;;;;;;;;;;;;;;;22.29;43.19;101856.50;5146028;27;9700;-63
2023/05/22 11:14:58;;;;;;;;;;;;;;;22.31;43.07;101856.19;5144512;27;10578;-63
2023/05/22 11:17:27;;;;;;;;;;;;;;;22.31;43.14;101854.22;5107632;27;8072;-63
2023/05/22 11:19:58;;;;;;;;;;;;;;;22.30;43.21;101848.91;5144738;27;7522;-62
2023/05/22 11:22:28;;;;;;;;;;;;;;;22.31;43.15;101850.56;5125809;27;8106;-63
2023/05/22 11:24:56;;;;;;;;;;;;;;;22.31;43.26;101847.75;5145296;27;7972;-63
2023/05/22 11:27:23;;;;;;;;;;;;;;;22.27;43.40;101844.69;5144265;27;7975;-63
2023/05/22 11:29:51;;;;;;;;;;;;;;;22.26;43.25;101845.81;5144492;27;10949;-62
2023/05/22 11:32:19;;;;;;;;;;;;;;;22.24;43.19;101839.69;5144108;27;12100;-62
2023/05/22 11:34:49;;;;;;;;;;;;;;;22.26;43.20;101839.38;5144640;27;10864;-62
2023/05/22 11:37:17;;;;;;;;;;;;;;;22.25;43.26;101837.69;5124597;27;7833;-62
2023/05/22 11:39:48;;;;;;;;;;;;;;;22.26;43.26;101833.75;5144025;27;9290;-62
2023/05/22 11:42:16;;;;;;;;;;;;;;;22.26;43.20;101833.75;5144434;27;10775;-62
2023/05/22 11:44:43;;;;;;;;;;;;;;;22.29;43.17;101833.16;5144683;27;7901;-62
2023/05/22 11:47:11;;;;;;;;;;;;;;;22.30;43.15;101824.41;5123984;27;5663;-62
2023/05/22 11:49:39;;;;;;;;;;;;;;;22.26;43.14;101833.75;5141676;27;10231;-62
2023/05/22 11:52:07;;;;;;;;;;;;;;;22.23;43.27;101835.19;5123987;27;8270;-63
2023/05/22 11:54:34;;;;;;;;;;;;;;;22.24;43.34;101836.88;5143308;27;11622;-62
2023/05/22 11:57:05;;;;;;;;;;;;;;;22.24;43.48;101834.03;5144141;27;5529;-62
2023/05/22 11:59:33;;;;;;;;;;;;;;;22.20;43.54;101838.59;5120516;27;10559;-63
2023/05/22 12:02:00;;;;;;;;;;;;;;;22.22;43.63;101841.09;5142504;27;7939;-64
2023/05/22 12:04:27;;;;;;;;;;;;;;;22.22;43.50;101838.28;5124022;27;8019;-63
2023/05/22 12:06:55;;;;;;;;;;;;;;;22.21;43.57;101840.28;5123671;27;8062;-62
2023/05/22 12:09:22;;;;;;;;;;;;;;;22.20;43.60;101844.22;5143809;27;7975;-63
2023/05/22 12:11:50;;;;;;;;;;;;;;;22.18;43.70;101840.84;5144235;27;7160;-63
2023/05/22 12:14:16;;;;;;;;;;;;;;;22.17;43.80;101840.00;5143525;27;7992;-62
2023/05/22 12:16:44;;;;;;;;;;;;;;;22.18;43.90;101844.50;5122104;27;8202;-63
2023/05/22 12:19:12;;;;;;;;;;;;;;;22.17;43.77;101845.66;5125076;27;7537;-63
2023/05/22 12:21:40;;;;;;;;;;;;;;;22.17;43.92;101839.16;5123678;27;9815;-63
2023/05/22 12:24:08;;;;;;;;;;;;;;;22.16;43.93;101840.34;5144044;27;9965;-63
2023/05/22 12:26:35;;;;;;;;;;;;;;;22.15;43.94;101847.09;5126395;27;5330;-63
2023/05/22 12:29:03;;;;;;;;;;;;;;;22.18;44.12;101838.88;5123345;27;12880;-63
2023/05/22 12:31:34;;;;;;;;;;;;;;;22.16;43.93;101844.00;5141138;27;16292;-63
2023/05/22 12:34:03;;;;;;;;;;;;;;;22.13;44.30;101836.13;5142063;27;9859;-62
2023/05/22 12:36:32;;;;;;;;;;;;;;;22.15;43.98;101838.66;5116550;27;12152;-63
2023/05/22 12:39:00;;;;;;;;;;;;;;;22.16;44.03;101840.34;5120331;27;7532;-64
2023/05/22 12:41:27;;;;;;;;;;;;;;;22.18;44.22;101833.25;5123716;27;8101;-63
2023/05/22 12:43:54;;;;;;;;;;;;;;;22.15;44.31;101825.41;5142059;27;9762;-63
2023/05/22 12:46:21;;;;;;;;;;;;;;;22.19;44.24;101831.28;5119708;27;7543;-63
2023/05/22 12:48:48;;;;;;;;;;;;;;;22.25;43.98;101832.91;5139548;27;9773;-63
2023/05/22 12:51:15;;;;;;;;;;;;;;;22.20;44.31;101824.53;5140122;27;9221;-63
2023/05/22 12:53:45;;;;;;;;;;;;;;;22.15;44.53;101835.84;5141174;27;11158;-62
2023/05/22 12:56:12;;;;;;;;;;;;;;;22.16;44.62;101838.38;5140626;27;11994;-62
2023/05/22 12:58:39;;;;;;;;;;;;;;;22.17;44.65;101836.34;5120267;27;9388;-62
2023/05/22 13:01:06;;;;;;;;;;;;;;;22.16;44.48;101840.34;5119738;27;8067;-62